sensor_id;sensor_type;location;lat;lon;timestamp;temperature;humidity
35325;DHT22;35135;47.510;19.036;2022-10-30T00:01:27;22.50;66.30
35325;DHT22;35135;47.510;19.036;2022-10-30T00:03:53;22.50;66.30
35325;DHT22;35135;47.510;19.036;2022-10-30T00:06:18;22.50;66.20
35325;DHT22;35135;47.510;19.036;2022-10-30T00:08:44;22.50;66.20
35325;DHT22;35135;47.510;19.036;2022-10-30T00:11:11;22.50;66.30
35325;DHT22;35135;47.510;19.036;2022-10-30T00:13:37;22.40;66.20
35325;DHT22;35135;47.510;19.036;2022-10-30T00:16:06;22.50;66.20
35325;DHT22;35135;47.510;19.036;2022-10-30T00:18:34;22.40;66.20
35325;DHT22;35135;47.510;19.036;2022-10-30T00:21:11;22.50;66.30
35325;DHT22;35135;47.510;19.036;2022-10-30T00:23:38;22.40;66.10
35325;DHT22;35135;47.510;19.036;2022-10-30T00:26:05;22.40;66.10
35325;DHT22;35135;47.510;19.036;2022-10-30T00:28:31;22.40;66.10
35325;DHT22;35135;47.510;19.036;2022-10-30T00:31:01;22.40;66.20
35325;DHT22;35135;47.510;19.036;2022-10-30T00:33:27;22.40;66.20
35325;DHT22;35135;47.510;19.036;2022-10-30T00:35:52;22.40;66.20
35325;DHT22;35135;47.510;19.036;2022-10-30T00:38:18;22.40;66.20
35325;DHT22;35135;47.510;19.036;2022-10-30T00:40:44;22.40;66.20
35325;DHT22;35135;47.510;19.036;2022-10-30T00:45:53;22.40;66.10
35325;DHT22;35135;47.510;19.036;2022-10-30T00:48:24;22.40;66.20
35325;DHT22;35135;47.510;19.036;2022-10-30T00:50:50;22.40;66.20
35325;DHT22;35135;47.510;19.036;2022-10-30T00:53:17;22.40;66.20
35325;DHT22;35135;47.510;19.036;2022-10-30T00:55:51;22.40;66.20
35325;DHT22;35135;47.510;19.036;2022-10-30T00:58:22;22.40;66.20
35325;DHT22;35135;47.510;19.036;2022-10-30T01:00:51;22.40;66.20
35325;DHT22;35135;47.510;19.036;2022-10-30T01:03:19;22.40;66.20
35325;DHT22;35135;47.510;19.036;2022-10-30T01:05:49;22.40;66.20
35325;DHT22;35135;47.510;19.036;2022-10-30T01:08:17;22.40;66.20
35325;DHT22;35135;47.510;19.036;2022-10-30T01:10:43;22.40;66.20
35325;DHT22;35135;47.510;19.036;2022-10-30T01:13:09;22.40;66.20
35325;DHT22;35135;47.510;19.036;2022-10-30T01:15:39;22.40;66.20
35325;DHT22;35135;47.510;19.036;2022-10-30T01:26:30;22.40;66.10
35325;DHT22;35135;47.510;19.036;2022-10-30T01:39:55;22.40;66.20
35325;DHT22;35135;47.510;19.036;2022-10-30T01:42:52;22.40;66.10
35325;DHT22;35135;47.510;19.036;2022-10-30T01:45:23;22.30;66.00
35325;DHT22;35135;47.510;19.036;2022-10-30T01:51:03;22.30;65.90
35325;DHT22;35135;47.510;19.036;2022-10-30T01:56:19;22.30;66.00
35325;DHT22;35135;47.510;19.036;2022-10-30T01:58:53;22.40;66.00
35325;DHT22;35135;47.510;19.036;2022-10-30T02:01:23;22.40;66.00
35325;DHT22;35135;47.510;19.036;2022-10-30T02:03:49;22.30;66.70
35325;DHT22;35135;47.510;19.036;2022-10-30T02:06:15;22.30;66.00
35325;DHT22;35135;47.510;19.036;2022-10-30T02:08:41;22.30;66.00
35325;DHT22;35135;47.510;19.036;2022-10-30T02:11:09;22.30;66.00
35325;DHT22;35135;47.510;19.036;2022-10-30T02:13:36;22.30;66.00
35325;DHT22;35135;47.510;19.036;2022-10-30T02:16:02;22.30;66.00
35325;DHT22;35135;47.510;19.036;2022-10-30T02:18:28;22.30;66.00
35325;DHT22;35135;47.510;19.036;2022-10-30T02:20:54;22.30;66.00
35325;DHT22;35135;47.510;19.036;2022-10-30T02:23:20;22.30;66.00
35325;DHT22;35135;47.510;19.036;2022-10-30T02:25:47;22.30;66.00
35325;DHT22;35135;47.510;19.036;2022-10-30T02:28:12;22.30;66.00
35325;DHT22;35135;47.510;19.036;2022-10-30T02:30:38;22.30;66.00
35325;DHT22;35135;47.510;19.036;2022-10-30T02:33:05;22.30;66.00
35325;DHT22;35135;47.510;19.036;2022-10-30T02:35:30;22.30;66.00
35325;DHT22;35135;47.510;19.036;2022-10-30T02:37:56;22.30;65.90
35325;DHT22;35135;47.510;19.036;2022-10-30T02:40:22;22.30;66.00
35325;DHT22;35135;47.510;19.036;2022-10-30T02:42:54;22.30;66.00
35325;DHT22;35135;47.510;19.036;2022-10-30T02:45:20;22.30;65.90
35325;DHT22;35135;47.510;19.036;2022-10-30T02:47:46;22.30;65.90
35325;DHT22;35135;47.510;19.036;2022-10-30T02:50:11;22.30;65.90
35325;DHT22;35135;47.510;19.036;2022-10-30T02:52:37;22.30;66.00
35325;DHT22;35135;47.510;19.036;2022-10-30T02:55:03;22.30;65.90
35325;DHT22;35135;47.510;19.036;2022-10-30T02:57:29;22.30;65.90
35325;DHT22;35135;47.510;19.036;2022-10-30T02:59:54;22.30;65.80
35325;DHT22;35135;47.510;19.036;2022-10-30T03:02:20;22.30;65.80
35325;DHT22;35135;47.510;19.036;2022-10-30T03:04:46;22.30;65.90
35325;DHT22;35135;47.510;19.036;2022-10-30T03:07:11;22.30;65.80
35325;DHT22;35135;47.510;19.036;2022-10-30T03:09:37;22.30;65.80
35325;DHT22;35135;47.510;19.036;2022-10-30T03:12:03;22.30;65.80
35325;DHT22;35135;47.510;19.036;2022-10-30T03:14:29;22.30;65.80
35325;DHT22;35135;47.510;19.036;2022-10-30T03:16:54;22.30;65.80
35325;DHT22;35135;47.510;19.036;2022-10-30T03:19:20;22.30;65.70
35325;DHT22;35135;47.510;19.036;2022-10-30T03:21:46;22.30;65.80
35325;DHT22;35135;47.510;19.036;2022-10-30T03:24:11;22.30;65.80
35325;DHT22;35135;47.510;19.036;2022-10-30T03:26:37;22.30;65.80
35325;DHT22;35135;47.510;19.036;2022-10-30T03:29:03;22.30;65.80
35325;DHT22;35135;47.510;19.036;2022-10-30T03:31:30;22.30;65.80
35325;DHT22;35135;47.510;19.036;2022-10-30T03:33:56;22.30;65.70
35325;DHT22;35135;47.510;19.036;2022-10-30T03:36:24;22.30;65.80
35325;DHT22;35135;47.510;19.036;2022-10-30T03:38:50;22.30;65.80
35325;DHT22;35135;47.510;19.036;2022-10-30T03:41:15;22.30;65.80
35325;DHT22;35135;47.510;19.036;2022-10-30T03:43:41;22.30;65.80
35325;DHT22;35135;47.510;19.036;2022-10-30T03:46:08;22.20;65.80
35325;DHT22;35135;47.510;19.036;2022-10-30T03:48:33;22.30;65.80
35325;DHT22;35135;47.510;19.036;2022-10-30T03:50:59;22.30;65.80
35325;DHT22;35135;47.510;19.036;2022-10-30T03:53:26;22.30;65.80
35325;DHT22;35135;47.510;19.036;2022-10-30T03:55:56;22.20;65.80
35325;DHT22;35135;47.510;19.036;2022-10-30T03:58:22;22.20;65.70
35325;DHT22;35135;47.510;19.036;2022-10-30T04:00:48;22.30;65.70
35325;DHT22;35135;47.510;19.036;2022-10-30T04:03:14;22.20;65.60
35325;DHT22;35135;47.510;19.036;2022-10-30T04:05:39;22.20;65.70
35325;DHT22;35135;47.510;19.036;2022-10-30T04:08:07;22.20;65.70
35325;DHT22;35135;47.510;19.036;2022-10-30T04:10:35;22.30;65.70
35325;DHT22;35135;47.510;19.036;2022-10-30T04:13:02;22.20;65.70
35325;DHT22;35135;47.510;19.036;2022-10-30T04:15:28;22.20;65.60
35325;DHT22;35135;47.510;19.036;2022-10-30T04:17:54;22.30;65.70
35325;DHT22;35135;47.510;19.036;2022-10-30T04:20:20;22.20;65.60
35325;DHT22;35135;47.510;19.036;2022-10-30T04:22:46;22.20;65.60
35325;DHT22;35135;47.510;19.036;2022-10-30T04:25:12;22.20;65.60
35325;DHT22;35135;47.510;19.036;2022-10-30T04:27:43;22.20;65.60
35325;DHT22;35135;47.510;19.036;2022-10-30T04:30:10;22.20;65.60
35325;DHT22;35135;47.510;19.036;2022-10-30T04:32:44;22.20;65.60
35325;DHT22;35135;47.510;19.036;2022-10-30T04:35:10;22.20;65.60
35325;DHT22;35135;47.510;19.036;2022-10-30T04:37:35;22.20;65.50
35325;DHT22;35135;47.510;19.036;2022-10-30T04:40:01;22.20;65.60
35325;DHT22;35135;47.510;19.036;2022-10-30T04:42:26;22.20;65.60
35325;DHT22;35135;47.510;19.036;2022-10-30T04:44:52;22.20;65.50
35325;DHT22;35135;47.510;19.036;2022-10-30T04:47:18;22.20;65.50
35325;DHT22;35135;47.510;19.036;2022-10-30T04:49:43;22.20;65.50
35325;DHT22;35135;47.510;19.036;2022-10-30T04:52:09;22.20;65.60
35325;DHT22;35135;47.510;19.036;2022-10-30T04:54:34;22.20;65.50
35325;DHT22;35135;47.510;19.036;2022-10-30T04:57:00;22.20;65.50
35325;DHT22;35135;47.510;19.036;2022-10-30T04:59:26;22.20;65.50
35325;DHT22;35135;47.510;19.036;2022-10-30T05:01:51;22.20;65.60
35325;DHT22;35135;47.510;19.036;2022-10-30T05:04:17;22.20;65.50
35325;DHT22;35135;47.510;19.036;2022-10-30T05:06:42;22.20;65.60
35325;DHT22;35135;47.510;19.036;2022-10-30T05:09:08;22.20;65.50
35325;DHT22;35135;47.510;19.036;2022-10-30T05:11:34;22.20;65.50
35325;DHT22;35135;47.510;19.036;2022-10-30T05:13:59;22.20;65.50
35325;DHT22;35135;47.510;19.036;2022-10-30T05:16:25;22.20;65.50
35325;DHT22;35135;47.510;19.036;2022-10-30T05:18:50;22.20;65.50
35325;DHT22;35135;47.510;19.036;2022-10-30T05:21:16;22.20;65.50
35325;DHT22;35135;47.510;19.036;2022-10-30T05:23:42;22.20;65.50
35325;DHT22;35135;47.510;19.036;2022-10-30T05:26:07;22.20;65.50
35325;DHT22;35135;47.510;19.036;2022-10-30T05:28:33;22.20;65.50
35325;DHT22;35135;47.510;19.036;2022-10-30T05:31:00;22.20;65.40
35325;DHT22;35135;47.510;19.036;2022-10-30T05:33:26;22.20;65.50
35325;DHT22;35135;47.510;19.036;2022-10-30T05:35:51;22.20;65.50
35325;DHT22;35135;47.510;19.036;2022-10-30T05:38:17;22.20;65.40
35325;DHT22;35135;47.510;19.036;2022-10-30T05:40:45;22.10;65.30
35325;DHT22;35135;47.510;19.036;2022-10-30T05:43:11;22.20;65.40
35325;DHT22;35135;47.510;19.036;2022-10-30T05:45:36;22.20;65.40
35325;DHT22;35135;47.510;19.036;2022-10-30T05:48:04;22.20;65.40
35325;DHT22;35135;47.510;19.036;2022-10-30T05:50:31;22.10;65.40
35325;DHT22;35135;47.510;19.036;2022-10-30T05:53:02;22.10;65.40
35325;DHT22;35135;47.510;19.036;2022-10-30T05:55:29;22.20;65.40
35325;DHT22;35135;47.510;19.036;2022-10-30T05:57:56;22.20;65.50
35325;DHT22;35135;47.510;19.036;2022-10-30T06:00:21;22.20;65.40
35325;DHT22;35135;47.510;19.036;2022-10-30T06:02:47;22.10;65.30
35325;DHT22;35135;47.510;19.036;2022-10-30T06:05:13;22.20;65.40
35325;DHT22;35135;47.510;19.036;2022-10-30T06:07:38;22.20;65.40
35325;DHT22;35135;47.510;19.036;2022-10-30T06:10:04;22.20;65.40
35325;DHT22;35135;47.510;19.036;2022-10-30T06:12:30;22.20;65.40
35325;DHT22;35135;47.510;19.036;2022-10-30T06:14:56;22.10;65.30
35325;DHT22;35135;47.510;19.036;2022-10-30T06:17:22;22.20;65.30
35325;DHT22;35135;47.510;19.036;2022-10-30T06:19:47;22.20;65.40
35325;DHT22;35135;47.510;19.036;2022-10-30T06:22:13;22.10;65.30
35325;DHT22;35135;47.510;19.036;2022-10-30T06:24:38;22.10;65.30
35325;DHT22;35135;47.510;19.036;2022-10-30T06:27:04;22.10;65.20
35325;DHT22;35135;47.510;19.036;2022-10-30T06:29:30;22.10;65.30
35325;DHT22;35135;47.510;19.036;2022-10-30T06:31:55;22.10;65.30
35325;DHT22;35135;47.510;19.036;2022-10-30T06:34:21;22.10;65.30
35325;DHT22;35135;47.510;19.036;2022-10-30T06:36:46;22.10;65.30
35325;DHT22;35135;47.510;19.036;2022-10-30T06:39:12;22.10;65.30
35325;DHT22;35135;47.510;19.036;2022-10-30T06:41:38;22.10;65.30
35325;DHT22;35135;47.510;19.036;2022-10-30T06:44:03;22.10;65.20
35325;DHT22;35135;47.510;19.036;2022-10-30T06:46:29;22.10;65.90
35325;DHT22;35135;47.510;19.036;2022-10-30T06:48:55;22.10;65.20
35325;DHT22;35135;47.510;19.036;2022-10-30T06:51:20;22.10;65.30
35325;DHT22;35135;47.510;19.036;2022-10-30T06:53:46;22.10;65.30
35325;DHT22;35135;47.510;19.036;2022-10-30T06:56:12;22.10;65.30
35325;DHT22;35135;47.510;19.036;2022-10-30T06:58:37;22.10;65.30
35325;DHT22;35135;47.510;19.036;2022-10-30T07:01:07;22.10;65.30
35325;DHT22;35135;47.510;19.036;2022-10-30T07:03:33;22.10;65.30
35325;DHT22;35135;47.510;19.036;2022-10-30T07:05:59;22.10;65.20
35325;DHT22;35135;47.510;19.036;2022-10-30T07:08:25;22.10;65.30
35325;DHT22;35135;47.510;19.036;2022-10-30T07:10:51;22.10;65.20
35325;DHT22;35135;47.510;19.036;2022-10-30T07:13:16;22.10;65.30
35325;DHT22;35135;47.510;19.036;2022-10-30T07:15:42;22.10;65.30
35325;DHT22;35135;47.510;19.036;2022-10-30T07:18:09;22.10;65.20
35325;DHT22;35135;47.510;19.036;2022-10-30T07:20:35;22.10;65.30
35325;DHT22;35135;47.510;19.036;2022-10-30T07:23:01;22.10;65.20
35325;DHT22;35135;47.510;19.036;2022-10-30T07:25:28;22.10;65.20
35325;DHT22;35135;47.510;19.036;2022-10-30T07:27:55;22.10;65.20
35325;DHT22;35135;47.510;19.036;2022-10-30T07:30:25;22.10;65.20
35325;DHT22;35135;47.510;19.036;2022-10-30T07:32:59;22.10;65.20
35325;DHT22;35135;47.510;19.036;2022-10-30T07:35:25;22.10;65.20
35325;DHT22;35135;47.510;19.036;2022-10-30T07:37:52;22.10;65.20
35325;DHT22;35135;47.510;19.036;2022-10-30T07:40:18;22.10;65.20
35325;DHT22;35135;47.510;19.036;2022-10-30T07:42:43;22.10;65.10
35325;DHT22;35135;47.510;19.036;2022-10-30T07:45:09;22.10;65.10
35325;DHT22;35135;47.510;19.036;2022-10-30T07:47:42;22.20;65.30
35325;DHT22;35135;47.510;19.036;2022-10-30T07:50:08;22.20;65.40
35325;DHT22;35135;47.510;19.036;2022-10-30T07:52:35;22.20;65.20
35325;DHT22;35135;47.510;19.036;2022-10-30T07:55:00;22.20;65.10
35325;DHT22;35135;47.510;19.036;2022-10-30T07:57:26;22.20;65.50
35325;DHT22;35135;47.510;19.036;2022-10-30T07:59:52;22.20;65.60
35325;DHT22;35135;47.510;19.036;2022-10-30T08:02:17;22.20;65.70
35325;DHT22;35135;47.510;19.036;2022-10-30T08:04:43;22.30;65.50
35325;DHT22;35135;47.510;19.036;2022-10-30T08:07:08;22.30;65.50
35325;DHT22;35135;47.510;19.036;2022-10-30T08:09:34;22.40;65.40
35325;DHT22;35135;47.510;19.036;2022-10-30T08:12:00;22.30;65.50
35325;DHT22;35135;47.510;19.036;2022-10-30T08:14:25;22.30;65.50
35325;DHT22;35135;47.510;19.036;2022-10-30T08:16:51;22.40;65.30
35325;DHT22;35135;47.510;19.036;2022-10-30T08:19:16;22.30;65.10
35325;DHT22;35135;47.510;19.036;2022-10-30T08:21:42;22.30;65.10
35325;DHT22;35135;47.510;19.036;2022-10-30T08:24:08;22.30;65.20
35325;DHT22;35135;47.510;19.036;2022-10-30T08:26:34;22.30;65.10
35325;DHT22;35135;47.510;19.036;2022-10-30T08:29:00;22.30;65.10
35325;DHT22;35135;47.510;19.036;2022-10-30T08:31:25;22.30;65.00
35325;DHT22;35135;47.510;19.036;2022-10-30T08:33:51;22.20;65.00
35325;DHT22;35135;47.510;19.036;2022-10-30T08:36:16;22.30;65.00
35325;DHT22;35135;47.510;19.036;2022-10-30T08:38:42;22.30;64.90
35325;DHT22;35135;47.510;19.036;2022-10-30T08:41:08;22.30;64.90
35325;DHT22;35135;47.510;19.036;2022-10-30T08:43:33;22.30;64.80
35325;DHT22;35135;47.510;19.036;2022-10-30T08:45:59;22.20;64.80
35325;DHT22;35135;47.510;19.036;2022-10-30T08:48:25;22.20;64.70
35325;DHT22;35135;47.510;19.036;2022-10-30T08:50:50;22.20;64.70
35325;DHT22;35135;47.510;19.036;2022-10-30T08:53:17;22.20;64.60
35325;DHT22;35135;47.510;19.036;2022-10-30T08:55:42;22.20;64.60
35325;DHT22;35135;47.510;19.036;2022-10-30T08:58:08;22.30;64.70
35325;DHT22;35135;47.510;19.036;2022-10-30T09:00:34;22.20;64.50
35325;DHT22;35135;47.510;19.036;2022-10-30T09:03:00;22.20;64.50
35325;DHT22;35135;47.510;19.036;2022-10-30T09:05:25;22.20;64.50
35325;DHT22;35135;47.510;19.036;2022-10-30T09:07:55;22.20;64.50
35325;DHT22;35135;47.510;19.036;2022-10-30T09:10:22;22.20;64.50
35325;DHT22;35135;47.510;19.036;2022-10-30T09:12:53;22.30;64.50
35325;DHT22;35135;47.510;19.036;2022-10-30T09:15:18;22.20;64.40
35325;DHT22;35135;47.510;19.036;2022-10-30T09:17:44;22.20;64.40
35325;DHT22;35135;47.510;19.036;2022-10-30T09:20:10;22.20;64.30
35325;DHT22;35135;47.510;19.036;2022-10-30T09:22:39;22.20;64.30
35325;DHT22;35135;47.510;19.036;2022-10-30T09:25:06;22.20;64.30
35325;DHT22;35135;47.510;19.036;2022-10-30T09:27:38;22.20;64.20
35325;DHT22;35135;47.510;19.036;2022-10-30T09:30:04;22.20;64.20
35325;DHT22;35135;47.510;19.036;2022-10-30T09:32:30;22.20;64.30
35325;DHT22;35135;47.510;19.036;2022-10-30T09:34:56;22.30;64.30
35325;DHT22;35135;47.510;19.036;2022-10-30T09:37:21;22.30;64.30
35325;DHT22;35135;47.510;19.036;2022-10-30T09:39:48;22.30;64.30
35325;DHT22;35135;47.510;19.036;2022-10-30T09:42:25;22.30;64.20
35325;DHT22;35135;47.510;19.036;2022-10-30T09:56:53;22.30;64.10
35325;DHT22;35135;47.510;19.036;2022-10-30T10:04:42;22.30;64.00
35325;DHT22;35135;47.510;19.036;2022-10-30T10:07:31;22.30;64.00
35325;DHT22;35135;47.510;19.036;2022-10-30T10:10:04;22.30;64.00
35325;DHT22;35135;47.510;19.036;2022-10-30T10:12:43;22.30;64.00
35325;DHT22;35135;47.510;19.036;2022-10-30T10:15:20;22.30;63.90
35325;DHT22;35135;47.510;19.036;2022-10-30T10:17:53;22.30;63.90
35325;DHT22;35135;47.510;19.036;2022-10-30T10:20:39;22.30;63.90
35325;DHT22;35135;47.510;19.036;2022-10-30T10:23:31;22.30;63.90
35325;DHT22;35135;47.510;19.036;2022-10-30T10:26:17;22.30;63.80
35325;DHT22;35135;47.510;19.036;2022-10-30T10:37:22;22.30;63.80
35325;DHT22;35135;47.510;19.036;2022-10-30T10:43:10;22.30;63.70
35325;DHT22;35135;47.510;19.036;2022-10-30T10:46:13;22.30;63.70
35325;DHT22;35135;47.510;19.036;2022-10-30T10:51:28;22.30;63.70
35325;DHT22;35135;47.510;19.036;2022-10-30T10:54:17;22.30;63.70
35325;DHT22;35135;47.510;19.036;2022-10-30T10:56:47;22.30;63.70
35325;DHT22;35135;47.510;19.036;2022-10-30T10:59:41;22.30;63.70
35325;DHT22;35135;47.510;19.036;2022-10-30T11:04:39;22.30;63.70
35325;DHT22;35135;47.510;19.036;2022-10-30T11:09:43;22.30;63.70
35325;DHT22;35135;47.510;19.036;2022-10-30T11:12:10;22.30;63.70
35325;DHT22;35135;47.510;19.036;2022-10-30T11:14:36;22.30;63.60
35325;DHT22;35135;47.510;19.036;2022-10-30T11:17:23;22.30;63.60
35325;DHT22;35135;47.510;19.036;2022-10-30T11:19:56;22.30;63.60
35325;DHT22;35135;47.510;19.036;2022-10-30T11:22:37;22.30;63.60
35325;DHT22;35135;47.510;19.036;2022-10-30T11:25:24;22.30;64.20
35325;DHT22;35135;47.510;19.036;2022-10-30T11:27:55;22.30;63.60
35325;DHT22;35135;47.510;19.036;2022-10-30T11:30:24;22.30;63.60
35325;DHT22;35135;47.510;19.036;2022-10-30T11:32:50;22.30;63.50
35325;DHT22;35135;47.510;19.036;2022-10-30T11:35:18;22.30;63.50
35325;DHT22;35135;47.510;19.036;2022-10-30T11:37:46;22.30;63.50
35325;DHT22;35135;47.510;19.036;2022-10-30T11:42:43;22.30;63.60
35325;DHT22;35135;47.510;19.036;2022-10-30T11:45:14;22.30;63.50
35325;DHT22;35135;47.510;19.036;2022-10-30T11:47:41;22.30;63.60
35325;DHT22;35135;47.510;19.036;2022-10-30T11:50:20;22.30;63.60
35325;DHT22;35135;47.510;19.036;2022-10-30T11:52:48;22.30;63.50
35325;DHT22;35135;47.510;19.036;2022-10-30T11:57:56;22.30;63.50
35325;DHT22;35135;47.510;19.036;2022-10-30T12:00:25;22.30;63.50
35325;DHT22;35135;47.510;19.036;2022-10-30T12:02:53;22.30;63.50
35325;DHT22;35135;47.510;19.036;2022-10-30T12:07:53;22.30;63.40
35325;DHT22;35135;47.510;19.036;2022-10-30T12:10:29;22.30;63.40
35325;DHT22;35135;47.510;19.036;2022-10-30T12:12:55;22.30;64.00
35325;DHT22;35135;47.510;19.036;2022-10-30T12:15:24;22.30;63.40
35325;DHT22;35135;47.510;19.036;2022-10-30T12:17:57;22.30;63.40
35325;DHT22;35135;47.510;19.036;2022-10-30T12:20:24;22.30;63.40
35325;DHT22;35135;47.510;19.036;2022-10-30T12:22:50;22.30;63.40
35325;DHT22;35135;47.510;19.036;2022-10-30T12:25:30;22.30;63.40
35325;DHT22;35135;47.510;19.036;2022-10-30T12:28:03;22.30;63.40
35325;DHT22;35135;47.510;19.036;2022-10-30T12:30:34;22.30;63.40
35325;DHT22;35135;47.510;19.036;2022-10-30T12:33:15;22.30;63.40
35325;DHT22;35135;47.510;19.036;2022-10-30T12:35:48;22.30;63.40
35325;DHT22;35135;47.510;19.036;2022-10-30T12:41:28;22.30;63.40
35325;DHT22;35135;47.510;19.036;2022-10-30T12:44:02;22.30;63.40
35325;DHT22;35135;47.510;19.036;2022-10-30T12:49:38;22.30;63.40
35325;DHT22;35135;47.510;19.036;2022-10-30T12:55:11;22.30;63.40
35325;DHT22;35135;47.510;19.036;2022-10-30T13:00:57;22.30;63.40
35325;DHT22;35135;47.510;19.036;2022-10-30T13:06:15;22.30;63.40
35325;DHT22;35135;47.510;19.036;2022-10-30T13:11:43;22.30;63.50
35325;DHT22;35135;47.510;19.036;2022-10-30T13:14:18;22.30;63.50
35325;DHT22;35135;47.510;19.036;2022-10-30T13:16:44;22.30;63.40
35325;DHT22;35135;47.510;19.036;2022-10-30T13:19:11;22.30;63.40
35325;DHT22;35135;47.510;19.036;2022-10-30T13:24:46;22.30;63.40
35325;DHT22;35135;47.510;19.036;2022-10-30T13:27:21;22.30;63.30
35325;DHT22;35135;47.510;19.036;2022-10-30T13:35:56;22.30;63.30
35325;DHT22;35135;47.510;19.036;2022-10-30T13:38:33;22.30;63.40
35325;DHT22;35135;47.510;19.036;2022-10-30T13:41:19;22.30;63.40
35325;DHT22;35135;47.510;19.036;2022-10-30T13:47:14;22.30;63.50
35325;DHT22;35135;47.510;19.036;2022-10-30T13:50:07;22.30;63.50
35325;DHT22;35135;47.510;19.036;2022-10-30T13:52:38;22.30;63.70
35325;DHT22;35135;47.510;19.036;2022-10-30T13:55:24;22.30;63.90
35325;DHT22;35135;47.510;19.036;2022-10-30T14:03:47;22.40;63.70
35325;DHT22;35135;47.510;19.036;2022-10-30T14:09:23;22.40;63.70
35325;DHT22;35135;47.510;19.036;2022-10-30T14:11:45;22.40;64.00
35325;DHT22;35135;47.510;19.036;2022-10-30T14:17:08;22.40;64.10
35325;DHT22;35135;47.510;19.036;2022-10-30T14:22:38;22.40;64.00
35325;DHT22;35135;47.510;19.036;2022-10-30T14:25:14;22.40;63.90
35325;DHT22;35135;47.510;19.036;2022-10-30T14:27:40;22.40;64.00
35325;DHT22;35135;47.510;19.036;2022-10-30T14:30:17;22.40;64.00
35325;DHT22;35135;47.510;19.036;2022-10-30T14:32:48;22.40;64.00
35325;DHT22;35135;47.510;19.036;2022-10-30T14:35:32;22.40;64.00
35325;DHT22;35135;47.510;19.036;2022-10-30T14:38:15;22.40;64.00
35325;DHT22;35135;47.510;19.036;2022-10-30T14:43:46;22.40;65.10
35325;DHT22;35135;47.510;19.036;2022-10-30T14:46:41;22.50;64.30
35325;DHT22;35135;47.510;19.036;2022-10-30T14:52:10;22.50;64.10
35325;DHT22;35135;47.510;19.036;2022-10-30T14:54:47;22.50;64.20
35325;DHT22;35135;47.510;19.036;2022-10-30T14:58:07;22.40;64.10
35325;DHT22;35135;47.510;19.036;2022-10-30T15:05:55;22.50;64.10
35325;DHT22;35135;47.510;19.036;2022-10-30T15:14:12;22.50;63.90
35325;DHT22;35135;47.510;19.036;2022-10-30T15:16:40;22.50;63.90
35325;DHT22;35135;47.510;19.036;2022-10-30T15:19:07;22.50;63.90
35325;DHT22;35135;47.510;19.036;2022-10-30T15:21:44;22.50;64.00
35325;DHT22;35135;47.510;19.036;2022-10-30T15:24:18;22.50;63.90
35325;DHT22;35135;47.510;19.036;2022-10-30T15:26:48;22.50;63.90
35325;DHT22;35135;47.510;19.036;2022-10-30T15:29:29;22.50;64.00
35325;DHT22;35135;47.510;19.036;2022-10-30T15:32:01;22.50;64.10
35325;DHT22;35135;47.510;19.036;2022-10-30T15:34:28;22.50;64.00
35325;DHT22;35135;47.510;19.036;2022-10-30T15:36:54;22.50;64.10
35325;DHT22;35135;47.510;19.036;2022-10-30T15:39:20;22.50;64.20
35325;DHT22;35135;47.510;19.036;2022-10-30T15:41:47;22.50;64.30
35325;DHT22;35135;47.510;19.036;2022-10-30T15:44:23;22.40;64.30
35325;DHT22;35135;47.510;19.036;2022-10-30T15:46:53;22.50;64.30
35325;DHT22;35135;47.510;19.036;2022-10-30T15:51:55;22.50;64.20
35325;DHT22;35135;47.510;19.036;2022-10-30T15:54:22;22.50;64.30
35325;DHT22;35135;47.510;19.036;2022-10-30T15:56:52;22.50;64.30
35325;DHT22;35135;47.510;19.036;2022-10-30T15:59:22;22.50;64.20
35325;DHT22;35135;47.510;19.036;2022-10-30T16:01:51;22.50;64.20
35325;DHT22;35135;47.510;19.036;2022-10-30T16:06:59;22.50;64.20
35325;DHT22;35135;47.510;19.036;2022-10-30T16:09:26;22.50;64.20
35325;DHT22;35135;47.510;19.036;2022-10-30T16:11:56;22.50;64.30
35325;DHT22;35135;47.510;19.036;2022-10-30T16:14:25;22.50;64.20
35325;DHT22;35135;47.510;19.036;2022-10-30T16:16:51;22.50;64.20
35325;DHT22;35135;47.510;19.036;2022-10-30T16:19:23;22.50;64.30
35325;DHT22;35135;47.510;19.036;2022-10-30T16:21:52;22.50;64.40
35325;DHT22;35135;47.510;19.036;2022-10-30T16:24:22;22.50;64.40
35325;DHT22;35135;47.510;19.036;2022-10-30T16:27:14;22.50;64.40
35325;DHT22;35135;47.510;19.036;2022-10-30T16:29:41;22.50;64.20
35325;DHT22;35135;47.510;19.036;2022-10-30T16:32:11;22.50;64.30
35325;DHT22;35135;47.510;19.036;2022-10-30T16:34:38;22.50;64.20
35325;DHT22;35135;47.510;19.036;2022-10-30T16:37:08;22.50;64.20
35325;DHT22;35135;47.510;19.036;2022-10-30T16:39:36;22.50;64.30
35325;DHT22;35135;47.510;19.036;2022-10-30T16:42:02;22.50;64.30
35325;DHT22;35135;47.510;19.036;2022-10-30T16:44:33;22.50;64.20
35325;DHT22;35135;47.510;19.036;2022-10-30T16:47:09;22.50;64.20
35325;DHT22;35135;47.510;19.036;2022-10-30T16:49:45;22.50;64.20
35325;DHT22;35135;47.510;19.036;2022-10-30T16:52:14;22.50;64.30
35325;DHT22;35135;47.510;19.036;2022-10-30T16:54:46;22.50;64.20
35325;DHT22;35135;47.510;19.036;2022-10-30T16:57:21;22.50;64.20
35325;DHT22;35135;47.510;19.036;2022-10-30T16:59:49;22.50;64.20
35325;DHT22;35135;47.510;19.036;2022-10-30T17:02:24;22.50;64.20
35325;DHT22;35135;47.510;19.036;2022-10-30T17:05:15;22.50;64.20
35325;DHT22;35135;47.510;19.036;2022-10-30T17:07:56;22.50;64.20
35325;DHT22;35135;47.510;19.036;2022-10-30T17:10:40;22.50;64.20
35325;DHT22;35135;47.510;19.036;2022-10-30T17:13:38;22.50;64.20
35325;DHT22;35135;47.510;19.036;2022-10-30T17:16:23;22.50;64.20
35325;DHT22;35135;47.510;19.036;2022-10-30T17:18:50;22.50;64.20
35325;DHT22;35135;47.510;19.036;2022-10-30T17:21:21;22.50;64.20
35325;DHT22;35135;47.510;19.036;2022-10-30T17:23:56;22.50;64.20
35325;DHT22;35135;47.510;19.036;2022-10-30T17:26:22;22.50;64.20
35325;DHT22;35135;47.510;19.036;2022-10-30T17:28:49;22.50;64.20
35325;DHT22;35135;47.510;19.036;2022-10-30T17:34:17;22.50;64.20
35325;DHT22;35135;47.510;19.036;2022-10-30T17:36:47;22.60;64.20
35325;DHT22;35135;47.510;19.036;2022-10-30T17:39:13;22.60;64.30
35325;DHT22;35135;47.510;19.036;2022-10-30T17:41:39;22.60;64.20
35325;DHT22;35135;47.510;19.036;2022-10-30T17:44:06;22.50;64.20
35325;DHT22;35135;47.510;19.036;2022-10-30T17:46:32;22.60;64.20
35325;DHT22;35135;47.510;19.036;2022-10-30T17:48:58;22.60;64.20
35325;DHT22;35135;47.510;19.036;2022-10-30T17:51:25;22.60;64.20